createdAt,value
2018-02-04T00:00:46.101Z,92.00
2018-02-04T00:03:13.840Z,92.00
2018-02-04T00:05:41.186Z,92.10
2018-02-04T00:08:08.700Z,92.20
2018-02-04T00:10:36.821Z,92.20
2018-02-04T00:13:04.700Z,92.20
2018-02-04T00:15:32.131Z,92.10
2018-02-04T00:17:59.421Z,92.10
2018-02-04T00:20:26.820Z,92.00
2018-02-04T00:22:54.462Z,91.80
2018-02-04T00:25:21.924Z,91.70
2018-02-04T00:27:49.381Z,91.70
2018-02-04T00:30:16.901Z,91.70
2018-02-04T00:32:44.541Z,91.60
2018-02-04T00:35:12.221Z,91.70
2018-02-04T00:37:39.581Z,91.50
2018-02-04T00:40:07.121Z,91.40
2018-02-04T00:42:34.523Z,91.40
2018-02-04T00:45:01.910Z,91.80
2018-02-04T00:47:29.601Z,91.50
2018-02-04T00:49:57.448Z,91.40
2018-02-04T00:52:24.800Z,91.40
2018-02-04T00:54:52.500Z,91.40
2018-02-04T00:57:19.881Z,91.40
2018-02-04T00:59:47.222Z,91.50
2018-02-04T01:02:15.204Z,91.40
2018-02-04T01:04:42.616Z,91.60
2018-02-04T01:07:10.140Z,91.80
2018-02-04T01:09:37.500Z,91.90
2018-02-04T01:12:04.915Z,91.80
2018-02-04T01:14:32.378Z,91.60
2018-02-04T01:17:00.198Z,91.60
2018-02-04T01:19:27.620Z,91.40
2018-02-04T01:21:55.058Z,91.40
2018-02-04T01:24:23.438Z,91.40
2018-02-04T01:26:50.863Z,91.40
2018-02-04T01:29:18.458Z,91.40
2018-02-04T01:31:45.879Z,91.30
2018-02-04T01:34:13.218Z,91.30
2018-02-04T01:36:40.559Z,91.30
2018-02-04T01:39:08.100Z,91.20
2018-02-04T01:41:38.371Z,91.40
2018-02-04T01:44:05.820Z,91.10
2018-02-04T01:46:33.120Z,91.10
2018-02-04T01:49:00.581Z,91.70
2018-02-04T01:51:28.060Z,91.50
2018-02-04T01:53:55.580Z,91.50
2018-02-04T01:56:23.098Z,91.70
2018-02-04T01:58:50.379Z,91.80
2018-02-04T02:01:17.858Z,91.90
2018-02-04T02:03:46.081Z,91.80
2018-02-04T02:06:13.859Z,91.70
2018-02-04T02:08:41.339Z,91.80
2018-02-04T02:11:08.759Z,91.90
2018-02-04T02:13:36.158Z,91.90
2018-02-04T02:16:03.539Z,91.90
2018-02-04T02:18:30.881Z,91.80
2018-02-04T02:20:58.279Z,91.80
2018-02-04T02:23:25.608Z,91.70
2018-02-04T02:25:52.873Z,91.60
2018-02-04T02:28:20.278Z,91.50
2018-02-04T02:30:47.679Z,91.50
2018-02-04T02:33:15.118Z,91.50
2018-02-04T02:35:43.318Z,91.30
2018-02-04T02:38:10.598Z,91.30
2018-02-04T02:40:38.381Z,91.20
2018-02-04T02:43:05.658Z,91.20
2018-02-04T02:45:33.087Z,91.10
2018-02-04T02:48:00.646Z,91.00
2018-02-04T02:50:27.928Z,90.80
2018-02-04T02:52:55.379Z,90.50
2018-02-04T02:55:22.638Z,90.60
2018-02-04T02:57:50.359Z,90.90
2018-02-04T03:00:17.978Z,91.20
2018-02-04T03:02:45.498Z,91.30
2018-02-04T03:05:13.238Z,91.30
2018-02-04T03:07:40.578Z,91.30
2018-02-04T03:10:08.321Z,91.20
2018-02-04T03:12:36.157Z,91.10
2018-02-04T03:15:03.619Z,91.10
2018-02-04T03:17:31.178Z,91.00
2018-02-04T03:19:58.460Z,91.10
2018-02-04T03:22:26.399Z,90.80
2018-02-04T03:24:53.900Z,90.90
2018-02-04T03:27:21.221Z,88.40
2018-02-04T03:29:48.601Z,86.50
2018-02-04T03:32:16.058Z,88.80
2018-02-04T03:34:43.434Z,90.20
2018-02-04T03:37:10.839Z,90.60
2018-02-04T03:39:38.620Z,89.30
2018-02-04T03:42:06.539Z,90.80
2018-02-04T03:44:33.960Z,91.10
2018-02-04T03:47:01.658Z,89.70
2018-02-04T03:49:29.058Z,90.10
2018-02-04T03:51:56.678Z,90.00
2018-02-04T03:54:24.058Z,89.70
2018-02-04T03:56:52.229Z,88.80
2018-02-04T03:59:19.929Z,88.80
2018-02-04T04:01:47.582Z,88.20
2018-02-04T04:04:15.562Z,89.00
2018-02-04T04:06:43.004Z,89.70
2018-02-04T04:09:10.343Z,90.00
2018-02-04T04:11:37.983Z,90.10
2018-02-04T04:14:05.703Z,88.60
2018-02-04T04:16:33.203Z,89.50
2018-02-04T04:19:00.543Z,90.40
2018-02-04T04:21:28.043Z,90.70
2018-02-04T04:23:55.902Z,90.60
2018-02-04T04:26:23.264Z,90.60
2018-02-04T04:28:50.622Z,91.00
2018-02-04T04:31:18.662Z,91.10
2018-02-04T04:33:45.982Z,91.50
2018-02-04T04:36:13.724Z,91.30
2018-02-04T04:38:41.083Z,91.10
2018-02-04T04:41:09.502Z,90.50
2018-02-04T04:43:37.343Z,90.40
2018-02-04T04:46:05.823Z,90.60
2018-02-04T04:48:33.242Z,90.30
2018-02-04T04:51:01.822Z,88.90
2018-02-04T04:53:29.162Z,88.90
2018-02-04T04:55:56.542Z,90.00
2018-02-04T04:58:23.922Z,90.60
2018-02-04T05:00:51.302Z,91.10
2018-02-04T05:03:19.102Z,91.50
2018-02-04T05:05:47.342Z,91.40
2018-02-04T05:08:15.042Z,91.30
2018-02-04T05:10:42.662Z,90.40
2018-02-04T05:13:10.502Z,91.10
2018-02-04T05:15:37.871Z,91.10
2018-02-04T05:18:05.422Z,90.10
2018-02-04T05:20:33.262Z,89.70
2018-02-04T05:23:01.000Z,90.00
2018-02-04T05:25:28.381Z,90.50
2018-02-04T05:27:56.534Z,90.80
2018-02-04T05:30:23.941Z,91.10
2018-02-04T05:32:51.260Z,91.20
2018-02-04T05:35:18.781Z,91.20
2018-02-04T05:37:46.538Z,91.20
2018-02-04T05:40:14.040Z,91.10
2018-02-04T05:42:41.421Z,91.10
2018-02-04T05:45:09.821Z,91.20
2018-02-04T05:47:37.139Z,91.20
2018-02-04T05:50:04.480Z,91.20
2018-02-04T05:52:31.759Z,91.00
2018-02-04T05:54:59.140Z,91.10
2018-02-04T05:57:26.740Z,90.70
2018-02-04T05:59:55.139Z,90.50
2018-02-04T06:02:22.704Z,90.40
2018-02-04T06:04:49.983Z,90.40
2018-02-04T06:07:17.944Z,90.30
2018-02-04T06:09:46.144Z,90.00
2018-02-04T06:12:13.544Z,90.00
2018-02-04T06:14:41.664Z,90.00
2018-02-04T06:17:09.104Z,90.00
2018-02-04T06:19:36.506Z,89.80
2018-02-04T06:22:03.924Z,89.70
2018-02-04T06:24:32.064Z,90.00
2018-02-04T06:26:59.584Z,89.90
2018-02-04T06:29:27.103Z,89.70
2018-02-04T06:31:54.444Z,90.00
2018-02-04T06:34:21.823Z,89.90
2018-02-04T06:36:49.111Z,90.00
2018-02-04T06:39:16.544Z,90.00
2018-02-04T06:41:43.986Z,90.00
2018-02-04T06:44:11.363Z,89.80
2018-02-04T06:46:38.743Z,89.70
2018-02-04T06:49:06.024Z,89.50
2018-02-04T06:51:34.144Z,89.40
2018-02-04T06:54:01.984Z,89.10
2018-02-04T06:56:30.343Z,88.80
2018-02-04T06:58:57.964Z,88.90
2018-02-04T07:01:25.380Z,88.70
2018-02-04T07:03:53.688Z,87.90
2018-02-04T07:06:21.125Z,87.80
2018-02-04T07:08:48.860Z,87.10
2018-02-04T07:11:16.320Z,85.90
2018-02-04T07:13:43.680Z,85.40
2018-02-04T07:16:11.100Z,85.00
2018-02-04T07:18:38.482Z,84.70
2018-02-04T07:21:06.622Z,84.90
2018-02-04T07:23:34.340Z,84.90
2018-02-04T07:26:01.662Z,84.60
2018-02-04T07:28:29.682Z,83.10
2018-02-04T07:30:57.060Z,83.10
2018-02-04T07:33:25.262Z,82.20
2018-02-04T07:35:52.621Z,82.20
2018-02-04T07:38:19.907Z,81.80
2018-02-04T07:40:47.419Z,81.80
2018-02-04T07:43:14.901Z,83.70
2018-02-04T07:45:42.302Z,83.20
2018-02-04T07:48:09.681Z,82.10
2018-02-04T07:50:37.083Z,81.60
2018-02-04T07:53:04.441Z,81.60
2018-02-04T07:55:32.682Z,81.20
2018-02-04T07:58:00.061Z,81.10
2018-02-04T08:00:27.273Z,81.00
2018-02-04T08:02:54.780Z,80.50
2018-02-04T08:05:22.160Z,80.20
2018-02-04T08:07:50.281Z,80.10
2018-02-04T08:10:17.665Z,80.10
2018-02-04T08:12:45.119Z,79.20
2018-02-04T08:15:12.567Z,78.10
2018-02-04T08:17:40.179Z,77.70
2018-02-04T08:20:07.334Z,77.10
2018-02-04T08:22:34.533Z,76.30
2018-02-04T08:25:01.769Z,76.00
2018-02-04T08:27:28.944Z,75.30
2018-02-04T08:29:56.140Z,75.30
2018-02-04T08:32:23.504Z,75.80
2018-02-04T08:34:51.182Z,72.70
2018-02-04T08:37:18.635Z,72.30
2018-02-04T08:39:45.932Z,71.80
2018-02-04T08:42:13.364Z,70.90
2018-02-04T08:44:40.684Z,69.80
2018-02-04T08:47:07.968Z,70.50
2018-02-04T08:49:35.380Z,70.90
2018-02-04T08:52:03.193Z,69.40
2018-02-04T08:54:31.962Z,70.30
2018-02-04T08:56:59.829Z,69.60
2018-02-04T08:59:27.921Z,69.90
2018-02-04T09:01:55.427Z,69.80
2018-02-04T09:04:22.797Z,70.80
2018-02-04T09:06:50.368Z,72.20
2018-02-04T09:09:17.701Z,72.30
2018-02-04T09:11:45.089Z,73.80
2018-02-04T09:14:12.565Z,74.00
2018-02-04T09:16:39.943Z,74.40
2018-02-04T09:19:08.134Z,76.20
2018-02-04T09:21:36.411Z,76.20
2018-02-04T09:24:03.722Z,77.50
2018-02-04T09:26:31.102Z,78.50
2018-02-04T09:28:58.764Z,78.40
2018-02-04T09:31:26.088Z,78.70
2018-02-04T09:33:53.339Z,78.40
2018-02-04T09:36:20.642Z,77.90
2018-02-04T09:38:47.902Z,78.20
2018-02-04T09:41:15.143Z,77.80
2018-02-04T09:43:42.461Z,78.20
2018-02-04T09:46:09.864Z,78.40
2018-02-04T09:48:37.303Z,78.20
2018-02-04T09:51:04.605Z,78.40
2018-02-04T09:53:31.901Z,78.30
2018-02-04T09:55:59.264Z,78.50
2018-02-04T09:58:26.534Z,77.60
2018-02-04T10:00:53.842Z,78.80
2018-02-04T10:03:21.163Z,79.00
2018-02-04T10:05:48.503Z,79.40
2018-02-04T10:08:15.904Z,78.50
2018-02-04T10:10:43.279Z,78.10
2018-02-04T10:13:10.598Z,76.80
2018-02-04T10:15:37.900Z,77.10
2018-02-04T10:18:05.970Z,76.50
2018-02-04T10:20:34.212Z,76.70
2018-02-04T10:23:01.483Z,75.50
2018-02-04T10:25:28.906Z,76.10
2018-02-04T10:27:58.730Z,75.30
2018-02-04T10:30:26.409Z,74.40
2018-02-04T10:32:53.705Z,75.50
2018-02-04T10:35:20.960Z,74.90
2018-02-04T10:37:48.348Z,74.20
2018-02-04T10:40:15.659Z,75.40
2018-02-04T10:42:42.899Z,75.30
2018-02-04T10:45:10.226Z,71.80
2018-02-04T10:47:37.476Z,74.00
2018-02-04T10:50:04.723Z,73.20
2018-02-04T10:52:32.065Z,72.30
2018-02-04T10:54:59.284Z,73.00
2018-02-04T10:57:26.559Z,72.90
2018-02-04T10:59:53.818Z,71.10
2018-02-04T11:02:21.129Z,71.00
2018-02-04T11:04:48.409Z,72.00
2018-02-04T11:07:15.747Z,69.80
2018-02-04T11:09:42.980Z,70.00
2018-02-04T11:12:10.244Z,70.80
2018-02-04T11:14:37.520Z,70.40
2018-02-04T11:17:04.744Z,69.60
2018-02-04T11:19:32.000Z,67.60
2018-02-04T11:21:59.292Z,65.30
2018-02-04T11:24:26.659Z,71.00
2018-02-04T11:26:53.879Z,69.40
2018-02-04T11:29:21.200Z,66.90
2018-02-04T11:31:51.286Z,62.90
2018-02-04T11:34:18.540Z,69.70
2018-02-04T11:36:45.867Z,70.50
2018-02-04T11:39:13.127Z,66.10
2018-02-04T11:41:41.219Z,74.70
2018-02-04T11:44:08.488Z,74.20
2018-02-04T11:46:35.808Z,73.80
2018-02-04T11:49:03.118Z,72.30
2018-02-04T11:51:31.166Z,71.10
2018-02-04T11:53:58.553Z,71.00
2018-02-04T11:56:26.626Z,71.90
2018-02-04T11:58:53.958Z,71.90
2018-02-04T12:01:21.206Z,71.30
2018-02-04T12:03:48.447Z,69.90
2018-02-04T12:06:16.487Z,71.20
2018-02-04T12:08:43.739Z,71.20
2018-02-04T12:11:11.000Z,71.60
2018-02-04T12:13:38.258Z,72.20
2018-02-04T12:16:05.538Z,69.20
2018-02-04T12:18:32.874Z,67.10
2018-02-04T12:21:00.160Z,65.60
2018-02-04T12:23:27.447Z,64.60
2018-02-04T12:25:55.521Z,65.20
2018-02-04T12:28:22.769Z,66.00
2018-02-04T12:30:49.993Z,65.30
2018-02-04T12:33:17.266Z,65.10
2018-02-04T12:35:44.502Z,65.50
2018-02-04T12:38:11.741Z,62.30
2018-02-04T12:40:39.042Z,63.00
2018-02-04T12:43:06.262Z,63.20
2018-02-04T12:45:33.545Z,64.00
2018-02-04T12:48:00.762Z,62.30
2018-02-04T12:50:28.070Z,63.20
2018-02-04T12:52:55.344Z,62.20
2018-02-04T12:55:22.667Z,62.50
2018-02-04T12:57:50.725Z,62.90
2018-02-04T13:00:20.624Z,64.00
2018-02-04T13:02:47.904Z,64.00
2018-02-04T13:05:15.259Z,65.00
2018-02-04T13:07:42.522Z,63.00
2018-02-04T13:10:09.758Z,63.70
2018-02-04T13:12:37.046Z,65.10
2018-02-04T13:15:04.306Z,64.10
2018-02-04T13:17:31.565Z,65.00
2018-02-04T13:19:58.799Z,66.30
2018-02-04T13:22:26.123Z,65.70
2018-02-04T13:24:53.459Z,66.40
2018-02-04T13:27:20.864Z,66.10
2018-02-04T13:29:48.181Z,67.40
2018-02-04T13:32:15.427Z,65.90
2018-02-04T13:34:42.701Z,66.50
2018-02-04T13:37:09.958Z,65.80
2018-02-04T13:39:37.256Z,66.40
2018-02-04T13:42:04.539Z,67.90
2018-02-04T13:44:31.763Z,68.70
2018-02-04T13:46:59.321Z,69.20
2018-02-04T13:49:26.584Z,68.80
2018-02-04T13:51:53.843Z,68.00
2018-02-04T13:54:21.123Z,67.30
2018-02-04T13:56:48.393Z,69.30
2018-02-04T13:59:15.703Z,70.10
2018-02-04T14:01:42.945Z,71.50
2018-02-04T14:04:10.224Z,72.90
2018-02-04T14:06:37.463Z,72.80
2018-02-04T14:09:04.777Z,71.70
2018-02-04T14:11:32.024Z,69.90
2018-02-04T14:13:59.247Z,70.80
2018-02-04T14:16:26.485Z,71.00
2018-02-04T14:18:53.744Z,67.00
2018-02-04T14:21:21.765Z,68.30
2018-02-04T14:23:48.985Z,68.30
2018-02-04T14:26:16.225Z,67.90
2018-02-04T14:28:43.464Z,68.20
2018-02-04T14:31:10.742Z,68.40
2018-02-04T14:33:38.067Z,68.30
2018-02-04T14:36:05.402Z,69.00
2018-02-04T14:38:32.669Z,69.80
2018-02-04T14:40:59.965Z,69.70
2018-02-04T14:43:27.231Z,69.00
2018-02-04T14:45:54.520Z,69.40
2018-02-04T14:48:21.781Z,69.60
2018-02-04T14:50:49.021Z,70.40
2018-02-04T14:53:16.340Z,70.30
2018-02-04T14:55:43.582Z,71.80
2018-02-04T14:58:10.802Z,73.90
2018-02-04T15:00:38.083Z,74.60
2018-02-04T15:03:05.570Z,73.60
2018-02-04T15:05:32.863Z,74.20
2018-02-04T15:08:00.201Z,74.90
2018-02-04T15:10:29.086Z,77.20
2018-02-04T15:12:56.500Z,76.50
2018-02-04T15:15:23.879Z,77.50
2018-02-04T15:17:51.302Z,78.10
2018-02-04T15:20:18.661Z,78.30
2018-02-04T15:22:46.440Z,77.00
2018-02-04T15:25:13.898Z,77.60
2018-02-04T15:27:41.240Z,78.50
2018-02-04T15:30:08.691Z,79.10
2018-02-04T15:32:36.081Z,79.20
2018-02-04T15:35:03.287Z,80.30
2018-02-04T15:37:30.624Z,80.50
2018-02-04T15:39:58.825Z,80.40
2018-02-04T15:42:26.084Z,80.40
2018-02-04T15:44:53.443Z,79.10
2018-02-04T15:47:20.726Z,79.10
2018-02-04T15:49:48.003Z,78.80
2018-02-04T15:52:15.363Z,79.40
2018-02-04T15:54:42.720Z,79.70
2018-02-04T15:57:10.600Z,79.80
2018-02-04T15:59:37.948Z,80.50
2018-02-04T16:02:05.340Z,81.40
2018-02-04T16:04:32.742Z,81.80
2018-02-04T16:07:00.863Z,82.90
2018-02-04T16:09:28.120Z,82.90
2018-02-04T16:11:55.501Z,81.90
2018-02-04T16:14:23.001Z,81.80
2018-02-04T16:16:50.401Z,82.50
2018-02-04T16:19:17.761Z,82.80
2018-02-04T16:21:45.281Z,81.80
2018-02-04T16:24:13.814Z,82.30
2018-02-04T16:26:41.261Z,82.40
2018-02-04T16:29:08.560Z,83.00
2018-02-04T16:31:36.062Z,83.30
2018-02-04T16:34:03.381Z,83.20
2018-02-04T16:36:31.041Z,83.40
2018-02-04T16:38:58.400Z,83.50
2018-02-04T16:41:25.849Z,84.00
2018-02-04T16:43:53.202Z,84.10
2018-02-04T16:46:20.602Z,84.20
2018-02-04T16:48:47.923Z,84.20
2018-02-04T16:51:15.428Z,84.00
2018-02-04T16:53:42.820Z,84.00
2018-02-04T16:56:10.941Z,84.20
2018-02-04T16:58:38.361Z,84.00
2018-02-04T17:01:05.808Z,84.20
2018-02-04T17:03:33.166Z,83.90
2018-02-04T17:06:00.705Z,83.80
2018-02-04T17:08:28.021Z,84.00
2018-02-04T17:10:55.406Z,84.20
2018-02-04T17:13:23.854Z,85.60
2018-02-04T17:15:51.188Z,85.60
2018-02-04T17:18:18.640Z,86.60
2018-02-04T17:20:46.047Z,86.30
2018-02-04T17:23:13.407Z,86.00
2018-02-04T17:25:40.827Z,86.40
2018-02-04T17:28:08.178Z,87.30
2018-02-04T17:30:35.626Z,87.40
2018-02-04T17:33:02.949Z,87.60
2018-02-04T17:35:30.629Z,87.50
2018-02-04T17:38:00.005Z,87.10
2018-02-04T17:40:27.462Z,87.00
2018-02-04T17:42:54.803Z,86.60
2018-02-04T17:45:22.443Z,87.00
2018-02-04T17:47:50.668Z,87.10
2018-02-04T17:50:18.123Z,87.10
2018-02-04T17:52:45.512Z,87.10
2018-02-04T17:55:12.870Z,87.40
2018-02-04T17:57:41.019Z,87.60
2018-02-04T18:00:08.462Z,87.60
2018-02-04T18:02:36.681Z,81.80
2018-02-04T18:05:04.734Z,80.80
2018-02-04T18:07:32.081Z,80.90
2018-02-04T18:09:59.446Z,82.50
2018-02-04T18:12:26.759Z,84.10
2018-02-04T18:14:57.433Z,84.90
2018-02-04T18:17:25.252Z,85.20
2018-02-04T18:19:52.701Z,82.60
2018-02-04T18:22:20.762Z,82.20
2018-02-04T18:24:48.744Z,84.30
2018-02-04T18:27:16.635Z,84.90
2018-02-04T18:29:44.306Z,86.20
2018-02-04T18:32:11.968Z,87.40
2018-02-04T18:34:39.760Z,88.50
2018-02-04T18:37:07.927Z,90.00
2018-02-04T18:39:35.605Z,90.00
2018-02-04T18:42:02.994Z,90.10
2018-02-04T18:44:30.486Z,90.10
2018-02-04T18:46:57.907Z,89.70
2018-02-04T18:49:27.318Z,86.80
2018-02-04T18:51:54.956Z,86.80
2018-02-04T18:54:24.828Z,85.70
2018-02-04T18:56:55.603Z,84.50
2018-02-04T18:59:23.790Z,84.50
2018-02-04T19:01:54.500Z,83.30
2018-02-04T19:04:21.901Z,84.80
2018-02-04T19:06:52.181Z,87.80
2018-02-04T19:09:20.163Z,87.80
2018-02-04T19:11:59.784Z,90.30
2018-02-04T19:14:27.174Z,88.60
2018-02-04T19:16:55.462Z,86.50
2018-02-04T19:19:23.240Z,85.90
2018-02-04T19:21:55.260Z,85.60
2018-02-04T19:24:23.759Z,85.30
2018-02-04T19:26:52.203Z,85.50
2018-02-04T19:29:19.822Z,86.00
2018-02-04T19:31:48.086Z,88.90
2018-02-04T19:34:15.460Z,88.00
2018-02-04T19:36:42.998Z,87.70
2018-02-04T19:39:11.902Z,87.40
2018-02-04T19:41:39.319Z,87.40
2018-02-04T19:44:07.464Z,90.00
2018-02-04T19:46:34.943Z,90.60
2018-02-04T19:49:03.218Z,89.90
2018-02-04T19:51:31.433Z,87.50
2018-02-04T19:53:59.005Z,87.30
2018-02-04T19:56:26.302Z,86.90
2018-02-04T19:58:53.698Z,86.70
2018-02-04T20:01:21.245Z,87.40
2018-02-04T20:03:48.622Z,87.10
2018-02-04T20:06:15.905Z,87.90
2018-02-04T20:08:43.238Z,88.20
2018-02-04T20:11:11.300Z,91.20
2018-02-04T20:13:40.113Z,91.20
2018-02-04T20:16:08.018Z,91.70
2018-02-04T20:18:35.382Z,92.00
2018-02-04T20:21:03.390Z,92.00
2018-02-04T20:23:31.585Z,91.90
2018-02-04T20:25:58.987Z,91.70
2018-02-04T20:28:26.529Z,91.50
2018-02-04T20:30:53.960Z,91.30
2018-02-04T20:33:24.017Z,91.30
2018-02-04T20:35:53.364Z,91.30
2018-02-04T20:38:21.068Z,91.30
2018-02-04T20:40:48.378Z,91.40
2018-02-04T20:43:17.644Z,91.20
2018-02-04T20:45:45.187Z,91.20
2018-02-04T20:48:12.987Z,91.30
2018-02-04T20:50:40.663Z,90.60
2018-02-04T20:53:08.105Z,90.40
2018-02-04T20:55:35.459Z,90.40
2018-02-04T20:58:03.149Z,90.00
2018-02-04T21:00:31.281Z,89.60
2018-02-04T21:03:00.385Z,89.60
2018-02-04T21:05:27.703Z,90.70
2018-02-04T21:07:55.151Z,90.90
2018-02-04T21:10:22.515Z,90.80
2018-02-04T21:12:49.805Z,90.90
2018-02-04T21:15:17.108Z,91.10
2018-02-04T21:17:45.112Z,91.10
2018-02-04T21:20:12.567Z,91.10
2018-02-04T21:22:40.665Z,91.10
2018-02-04T21:25:08.066Z,91.50
2018-02-04T21:27:35.410Z,91.10
2018-02-04T21:30:02.762Z,91.10
2018-02-04T21:32:30.246Z,91.10
2018-02-04T21:34:57.803Z,91.00
2018-02-04T21:37:25.222Z,91.00
2018-02-04T21:39:52.586Z,90.90
2018-02-04T21:42:19.904Z,90.90
2018-02-04T21:44:47.423Z,90.80
2018-02-04T21:47:15.644Z,90.50
2018-02-04T21:49:43.418Z,90.50
2018-02-04T21:52:10.659Z,90.30
2018-02-04T21:54:38.082Z,90.30
2018-02-04T21:57:05.485Z,90.30
2018-02-04T21:59:33.348Z,88.10
2018-02-04T22:02:00.782Z,84.30
2018-02-04T22:04:28.098Z,84.80
2018-02-04T22:06:55.542Z,87.10
2018-02-04T22:09:22.941Z,88.30
2018-02-04T22:11:50.656Z,89.50
2018-02-04T22:14:18.023Z,90.10
2018-02-04T22:16:46.422Z,90.60
2018-02-04T22:19:14.006Z,90.60
2018-02-04T22:21:41.422Z,90.00
2018-02-04T22:24:08.810Z,88.90
2018-02-04T22:26:36.684Z,88.90
2018-02-04T22:29:04.292Z,89.80
2018-02-04T22:31:31.743Z,90.40
2018-02-04T22:33:59.142Z,90.60
2018-02-04T22:36:26.599Z,90.60
2018-02-04T22:38:54.060Z,90.50
2018-02-04T22:41:22.940Z,90.30
2018-02-04T22:43:50.642Z,90.10
2018-02-04T22:46:18.120Z,90.00
2018-02-04T22:48:45.520Z,89.90
2018-02-04T22:51:13.300Z,89.80
2018-02-04T22:53:41.221Z,89.80
2018-02-04T22:56:08.700Z,90.20
2018-02-04T22:58:36.462Z,90.10
2018-02-04T23:01:04.021Z,90.10
2018-02-04T23:03:31.865Z,89.90
2018-02-04T23:05:59.461Z,89.80
2018-02-04T23:08:26.881Z,89.30
2018-02-04T23:10:54.582Z,88.90
2018-02-04T23:13:22.321Z,88.80
2018-02-04T23:15:49.819Z,88.80
2018-02-04T23:18:17.201Z,88.70
2018-02-04T23:20:45.004Z,88.60
2018-02-04T23:23:13.365Z,88.50
2018-02-04T23:25:40.742Z,88.40
2018-02-04T23:28:08.481Z,88.50
2018-02-04T23:30:35.860Z,88.70
2018-02-04T23:33:03.740Z,89.30
2018-02-04T23:35:31.161Z,89.50
2018-02-04T23:37:58.541Z,89.40
2018-02-04T23:40:26.726Z,89.10
2018-02-04T23:42:54.141Z,89.10
2018-02-04T23:45:22.201Z,89.20
2018-02-04T23:47:49.502Z,89.30
2018-02-04T23:50:16.901Z,89.30
2018-02-04T23:52:44.523Z,89.10
2018-02-04T23:55:12.004Z,89.10
2018-02-04T23:57:39.444Z,89.00
